Savannah Hilton Head International Airport
KSAV : now visible

Airfield :











YOU CAN JOIN US ON...

 
LOGIN :

Register | Disclaimer

   EN    FR    IT 

 









Legend :    VFR   Marginal VFR   IFR   Intensive IFR   Very Intensive IFR
Visi :
Ceiling :
>= 8 km
>= 3000ft
5 to 8 km
1000 to 3000 ft
1500m to 5 km
500 to 1000 ft
800 to 1500m
200 to 500 ft
< 800m
< 200 ft
Symbols :   Thunderstorms  Fog  Heavy snow  Heavy precipitations  Wind > 20 kt






- Airport Elevation : 50 ft
- IATA code : SAV


KSAV - Savannah Hilton Head International

CURRENT METAR :
  • 112201Z 15012KT 5SM -RA BKN075 OVC090 31/27 A2993 RMK AO2 P0000 T03060267

EXPIRED METARs :
  • 112153Z 15015KT 7SM RA SCT040 SCT050 BKN085 32/26 A2993 RMK AO2 RAB51 SLP133 P0000 T03170256
  • 112053Z VRB03KT 10SM BKN046 BKN170 34/24 A2993 RMK AO2 SLP135 T03390239 56023
  • 111953Z VRB05KT 10SM BKN046 BKN170 34/23 A2995 RMK AO2 SLP142 T03390233

TAF KSAV
Valid from the 11 at 18:00 until the 12 at 18:00 UTC


111720Z 1118/1218 25006KT P6SM SCT035 BKN250
FM112000 18009KT P6SM VCTS SCT040CB
FM120100 23004KT P6SM BKN250
KZJX FIR / North America



MET'MAP, your aeronautical weather chart ! - Copyright ORBIFLY December 2007 - Disclaimer

ORBIFLY MET'MAP TEAM :

Programming & Development : Alexandra Zaïnal
Concept & original design : Baudouin d'Aumeries
Assistance for programming : Marc-Olivier Méhu
Technical & hardware support : Manuel Goepfert

Contact : metmap@orbifly.com




SOURCES & CREDITS :

   NOAA       Earth
Advisory